createdAt,value
2022-10-12T00:01:15.815Z,49.01
2022-10-12T00:03:43.087Z,49.09
2022-10-12T00:06:13.209Z,48.82
2022-10-12T00:08:42.056Z,49.12
2022-10-12T00:11:13.805Z,48.58
2022-10-12T00:13:40.965Z,48.83
2022-10-12T00:16:09.713Z,49.04
2022-10-12T00:18:37.687Z,48.60
2022-10-12T00:21:13.744Z,48.92
2022-10-12T00:23:41.989Z,48.70
2022-10-12T00:26:15.049Z,48.72
2022-10-12T00:28:42.292Z,49.03
2022-10-12T00:31:11.436Z,49.08
2022-10-12T00:33:39.157Z,49.09
2022-10-12T00:36:17.016Z,49.72
2022-10-12T00:38:44.173Z,49.23
2022-10-12T00:41:12.063Z,49.49
2022-10-12T00:43:42.008Z,49.56
2022-10-12T00:46:20.305Z,49.69
2022-10-12T00:48:58.589Z,50.60
2022-10-12T00:51:26.141Z,49.88
2022-10-12T00:53:59.754Z,49.94
2022-10-12T00:56:30.714Z,49.77
2022-10-12T00:59:00.938Z,49.60
2022-10-12T01:01:29.909Z,50.02
2022-10-12T01:03:56.777Z,49.58
2022-10-12T01:06:23.440Z,49.85
2022-10-12T01:08:50.639Z,49.65
2022-10-12T01:11:17.361Z,49.34
2022-10-12T01:13:44.126Z,49.66
2022-10-12T01:16:16.850Z,49.14
2022-10-12T01:19:00.004Z,49.30
2022-10-12T01:21:27.068Z,49.34
2022-10-12T01:24:21.868Z,49.35
2022-10-12T01:27:20.575Z,49.47
2022-10-12T01:29:56.268Z,49.30
2022-10-12T01:32:33.776Z,49.19
2022-10-12T01:35:29.047Z,49.10
2022-10-12T01:38:15.772Z,49.24
2022-10-12T01:40:51.021Z,49.08
2022-10-12T01:43:20.503Z,49.57
2022-10-12T01:45:47.346Z,49.26
2022-10-12T01:48:14.339Z,49.14
2022-10-12T01:51:02.871Z,48.83
2022-10-12T01:53:45.090Z,49.03
2022-10-12T01:56:22.868Z,49.00
2022-10-12T01:59:08.708Z,48.76
2022-10-12T02:01:48.528Z,48.66
2022-10-12T02:04:47.831Z,49.26
2022-10-12T02:07:26.998Z,49.00
2022-10-12T02:09:58.832Z,49.16
2022-10-12T02:12:29.473Z,48.64
2022-10-12T02:15:00.902Z,48.68
2022-10-12T02:17:30.357Z,48.77
2022-10-12T02:20:00.294Z,48.34
2022-10-12T02:22:34.411Z,48.29
2022-10-12T02:25:06.801Z,48.69
2022-10-12T02:27:37.129Z,48.38
2022-10-12T02:30:04.790Z,48.96
2022-10-12T02:32:39.752Z,48.82
2022-10-12T02:35:39.093Z,48.73
2022-10-12T02:38:32.958Z,48.87
2022-10-12T02:41:08.311Z,48.62
2022-10-12T02:43:40.203Z,48.45
2022-10-12T02:46:10.212Z,48.54
2022-10-12T02:48:40.160Z,48.88
2022-10-12T02:51:10.622Z,48.67
2022-10-12T02:53:37.949Z,49.11
2022-10-12T02:56:10.097Z,48.39
2022-10-12T02:58:37.185Z,48.72
2022-10-12T03:01:04.792Z,49.04
2022-10-12T03:03:31.687Z,48.69
2022-10-12T03:05:58.465Z,48.88
2022-10-12T03:08:25.315Z,48.77
2022-10-12T03:10:52.023Z,48.83
2022-10-12T03:13:19.567Z,49.14
2022-10-12T03:15:46.292Z,49.31
2022-10-12T03:18:13.124Z,49.02
2022-10-12T03:20:39.821Z,48.78
2022-10-12T03:23:06.680Z,48.96
2022-10-12T03:25:33.592Z,48.80
2022-10-12T03:28:00.444Z,48.92
2022-10-12T03:30:27.256Z,49.66
2022-10-12T03:32:54.154Z,49.13
2022-10-12T03:35:21.024Z,49.49
2022-10-12T03:37:47.759Z,49.08
2022-10-12T03:40:14.674Z,49.19
2022-10-12T03:42:41.505Z,49.46
2022-10-12T03:45:09.313Z,49.22
2022-10-12T03:47:38.033Z,49.02
2022-10-12T03:50:05.674Z,49.55
2022-10-12T03:52:32.464Z,50.09
2022-10-12T03:54:59.153Z,49.66
2022-10-12T03:57:26.194Z,49.73
2022-10-12T03:59:52.929Z,49.60
2022-10-12T04:02:19.978Z,50.36
2022-10-12T04:04:46.691Z,51.12
2022-10-12T04:07:13.859Z,51.21
2022-10-12T04:09:40.710Z,51.45
2022-10-12T04:12:07.473Z,52.26
2022-10-12T04:14:34.467Z,51.42
2022-10-12T04:17:01.306Z,51.93
2022-10-12T04:19:28.608Z,51.46
2022-10-12T04:21:55.352Z,51.00
2022-10-12T04:24:22.493Z,51.37
2022-10-12T04:26:49.208Z,50.91
2022-10-12T04:29:16.276Z,50.77
2022-10-12T04:31:43.048Z,50.37
2022-10-12T04:34:10.530Z,50.19
2022-10-12T04:36:37.421Z,50.56
2022-10-12T04:39:04.420Z,50.22
2022-10-12T04:41:31.334Z,49.98
2022-10-12T04:43:58.522Z,50.28
2022-10-12T04:46:25.373Z,50.82
2022-10-12T04:48:52.325Z,50.54
2022-10-12T04:51:19.254Z,49.82
2022-10-12T04:53:46.124Z,49.97
2022-10-12T04:56:12.927Z,50.14
2022-10-12T04:58:39.648Z,50.07
2022-10-12T05:01:06.679Z,49.74
2022-10-12T05:03:36.118Z,50.35
2022-10-12T05:06:06.686Z,50.86
2022-10-12T05:08:33.467Z,52.30
2022-10-12T05:11:00.427Z,51.72
2022-10-12T05:13:27.324Z,52.07
2022-10-12T05:15:54.664Z,51.78
2022-10-12T05:18:21.770Z,51.79
2022-10-12T05:20:49.253Z,52.53
2022-10-12T05:23:18.010Z,52.19
2022-10-12T05:25:44.762Z,52.42
2022-10-12T05:28:11.578Z,52.16
2022-10-12T05:30:39.291Z,51.81
2022-10-12T05:33:06.058Z,52.46
2022-10-12T05:35:32.806Z,52.93
2022-10-12T05:37:59.606Z,52.88
2022-10-12T05:40:26.360Z,52.18
2022-10-12T05:42:53.212Z,52.30
2022-10-12T05:45:19.884Z,52.55
2022-10-12T05:47:46.604Z,53.98
2022-10-12T05:50:13.518Z,53.27
2022-10-12T05:52:40.703Z,53.16
2022-10-12T05:55:08.449Z,52.11
2022-10-12T05:57:36.630Z,51.83
2022-10-12T06:00:05.975Z,51.46
2022-10-12T06:02:37.998Z,51.28
2022-10-12T06:05:05.629Z,51.76
2022-10-12T06:07:32.479Z,51.66
2022-10-12T06:10:00.242Z,51.29
2022-10-12T06:12:28.065Z,50.98
2022-10-12T06:14:55.224Z,50.42
2022-10-12T06:17:22.041Z,50.17
2022-10-12T06:19:48.859Z,50.92
2022-10-12T06:22:15.594Z,50.61
2022-10-12T06:24:42.539Z,50.17
2022-10-12T06:27:09.979Z,50.05
2022-10-12T06:29:38.226Z,49.58
2022-10-12T06:32:05.210Z,50.14
2022-10-12T06:34:32.124Z,49.77
2022-10-12T06:37:01.796Z,49.92
2022-10-12T06:39:29.047Z,49.46
2022-10-12T06:41:55.993Z,50.23
2022-10-12T06:44:22.892Z,50.06
2022-10-12T06:46:50.515Z,49.82
2022-10-12T06:49:17.988Z,49.67
2022-10-12T06:51:44.879Z,50.07
2022-10-12T06:54:11.728Z,49.98
2022-10-12T06:56:39.689Z,50.36
2022-10-12T06:59:06.661Z,49.77
2022-10-12T07:01:33.636Z,49.59
2022-10-12T07:04:01.053Z,49.56
2022-10-12T07:06:28.041Z,49.53
2022-10-12T07:08:55.611Z,49.50
2022-10-12T07:11:22.952Z,49.43
2022-10-12T07:13:49.804Z,49.12
2022-10-12T07:16:16.758Z,48.96
2022-10-12T07:18:43.483Z,49.19
2022-10-12T07:21:10.820Z,49.62
2022-10-12T07:23:41.363Z,49.41
2022-10-12T07:26:12.426Z,48.94
2022-10-12T07:28:39.275Z,48.87
2022-10-12T07:31:08.237Z,48.79
2022-10-12T07:33:36.316Z,49.02
2022-10-12T07:36:13.730Z,49.52
2022-10-12T07:38:45.223Z,49.39
2022-10-12T07:41:12.578Z,48.86
2022-10-12T07:43:39.450Z,49.30
2022-10-12T07:46:06.732Z,49.11
2022-10-12T07:48:34.374Z,49.16
2022-10-12T07:51:09.825Z,49.28
2022-10-12T07:53:38.362Z,48.97
2022-10-12T07:56:07.759Z,48.57
2022-10-12T07:58:35.622Z,49.14
2022-10-12T08:01:08.623Z,48.98
2022-10-12T08:03:35.812Z,48.95
2022-10-12T08:06:14.194Z,48.33
2022-10-12T08:08:41.898Z,48.45
2022-10-12T08:11:10.856Z,48.09
2022-10-12T08:13:38.440Z,48.60
2022-10-12T08:16:08.500Z,48.62
2022-10-12T08:18:35.389Z,48.69
2022-10-12T08:21:05.211Z,48.06
2022-10-12T08:23:31.984Z,47.89
2022-10-12T08:25:58.938Z,48.54
2022-10-12T08:28:25.925Z,48.43
2022-10-12T08:30:52.758Z,48.48
2022-10-12T08:33:20.108Z,48.35
2022-10-12T08:35:48.085Z,47.81
2022-10-12T08:38:16.530Z,47.63
2022-10-12T08:40:49.596Z,47.50
2022-10-12T08:43:42.703Z,48.47
2022-10-12T08:46:09.932Z,48.00
2022-10-12T08:48:50.518Z,47.72
2022-10-12T08:51:24.773Z,47.84
2022-10-12T08:53:57.854Z,48.40
2022-10-12T08:56:24.800Z,48.52
2022-10-12T08:58:53.375Z,48.64
2022-10-12T09:01:37.338Z,50.10
2022-10-12T09:04:23.037Z,49.29
2022-10-12T09:06:58.583Z,49.26
2022-10-12T09:09:59.003Z,49.02
2022-10-12T09:12:34.963Z,48.79
2022-10-12T09:15:09.079Z,49.43
2022-10-12T09:17:45.164Z,49.32
2022-10-12T09:20:28.223Z,48.97
2022-10-12T09:23:01.445Z,48.66
2022-10-12T09:25:29.349Z,48.30
2022-10-12T09:28:26.027Z,48.06
2022-10-12T09:31:05.515Z,48.15
2022-10-12T09:33:50.845Z,48.69
2022-10-12T09:36:21.713Z,49.03
2022-10-12T09:38:50.634Z,49.37
2022-10-12T09:41:26.304Z,48.86
2022-10-12T09:43:59.251Z,48.29
2022-10-12T09:47:02.597Z,47.40
2022-10-12T09:49:50.796Z,48.24
2022-10-12T09:52:24.535Z,47.97
2022-10-12T09:54:58.540Z,47.88
2022-10-12T09:57:30.632Z,48.02
2022-10-12T09:59:57.779Z,47.96
2022-10-12T10:02:26.730Z,47.16
2022-10-12T10:04:55.296Z,47.83
2022-10-12T10:07:34.732Z,48.18
2022-10-12T10:10:17.520Z,47.00
2022-10-12T10:12:50.389Z,46.78
2022-10-12T10:15:30.370Z,46.41
2022-10-12T10:18:02.841Z,46.74
2022-10-12T10:20:39.083Z,47.01
2022-10-12T10:23:06.212Z,46.44
2022-10-12T10:25:34.389Z,45.23
2022-10-12T10:28:25.676Z,45.53
2022-10-12T10:31:02.633Z,46.31
2022-10-12T10:33:36.466Z,46.08
2022-10-12T10:36:24.161Z,45.46
2022-10-12T10:38:56.878Z,46.17
2022-10-12T10:41:41.984Z,45.83
2022-10-12T10:44:25.757Z,45.34
2022-10-12T10:46:55.455Z,44.67
2022-10-12T10:49:47.053Z,45.41
2022-10-12T10:52:36.909Z,45.76
2022-10-12T10:55:17.322Z,44.91
2022-10-12T10:57:57.519Z,44.96
2022-10-12T11:00:40.993Z,45.15
2022-10-12T11:03:22.547Z,44.56
2022-10-12T11:05:58.193Z,44.03
2022-10-12T11:08:29.952Z,43.52
2022-10-12T11:11:02.936Z,43.95
2022-10-12T11:13:38.704Z,43.38
2022-10-12T11:16:20.709Z,43.61
2022-10-12T11:18:55.442Z,42.45
2022-10-12T11:21:38.488Z,43.02
2022-10-12T11:24:33.685Z,42.21
2022-10-12T11:27:09.398Z,42.25
2022-10-12T11:29:38.476Z,43.30
2022-10-12T11:32:35.152Z,43.54
2022-10-12T11:35:04.552Z,44.36
2022-10-12T11:38:16.690Z,43.82
2022-10-12T11:41:14.014Z,42.46
2022-10-12T11:43:50.327Z,43.67
2022-10-12T11:46:23.380Z,43.18
2022-10-12T11:49:02.721Z,43.04
2022-10-12T11:51:29.660Z,42.19
2022-10-12T11:54:16.465Z,42.70
2022-10-12T11:56:51.398Z,42.20
2022-10-12T11:59:42.092Z,42.15
2022-10-12T12:02:38.103Z,42.10
2022-10-12T12:05:07.063Z,42.29
2022-10-12T12:07:46.254Z,41.94
2022-10-12T12:10:35.023Z,41.62
2022-10-12T12:13:23.011Z,41.33
2022-10-12T12:15:53.353Z,42.21
2022-10-12T12:18:28.645Z,42.30
2022-10-12T12:21:01.423Z,41.82
2022-10-12T12:23:37.827Z,42.91
2022-10-12T12:26:15.764Z,41.48
2022-10-12T12:28:46.634Z,41.26
2022-10-12T12:31:24.813Z,41.16
2022-10-12T12:34:03.355Z,41.61
2022-10-12T12:36:33.392Z,41.45
2022-10-12T12:39:01.945Z,41.86
2022-10-12T12:41:52.008Z,41.73
2022-10-12T12:44:41.539Z,41.96
2022-10-12T12:47:43.454Z,41.73
2022-10-12T12:50:02.131Z,41.92
2022-10-12T12:52:33.500Z,42.49
2022-10-12T12:55:32.941Z,42.02
2022-10-12T12:58:36.106Z,41.51
2022-10-12T13:01:20.513Z,41.05
2022-10-12T13:04:21.155Z,40.88
2022-10-12T13:07:02.891Z,40.64
2022-10-12T13:10:11.148Z,40.78
2022-10-12T13:12:56.651Z,40.85
2022-10-12T13:15:46.439Z,40.63
2022-10-12T13:18:48.031Z,39.80
2022-10-12T13:21:23.038Z,39.33
2022-10-12T13:23:56.882Z,39.75
2022-10-12T13:26:29.380Z,39.12
2022-10-12T13:28:58.017Z,39.08
2022-10-12T13:31:41.601Z,39.26
2022-10-12T13:34:36.000Z,38.00
2022-10-12T13:37:09.901Z,37.15
2022-10-12T13:39:43.482Z,37.26
2022-10-12T13:42:16.779Z,38.70
2022-10-12T13:44:44.960Z,38.58
2022-10-12T13:47:26.578Z,38.65
2022-10-12T13:49:54.407Z,38.95
2022-10-12T13:52:29.542Z,39.28
2022-10-12T13:54:59.150Z,38.65
2022-10-12T13:57:32.684Z,38.82
2022-10-12T14:00:18.539Z,38.87
2022-10-12T14:02:59.821Z,38.35
2022-10-12T14:05:29.008Z,39.25
2022-10-12T14:08:01.483Z,38.98
2022-10-12T14:10:37.207Z,39.24
2022-10-12T14:13:05.131Z,39.32
2022-10-12T14:15:38.548Z,40.38
2022-10-12T14:18:31.084Z,40.48
2022-10-12T14:21:16.571Z,39.58
2022-10-12T14:24:10.392Z,39.97
2022-10-12T14:26:40.217Z,40.23
2022-10-12T14:29:31.288Z,40.87
2022-10-12T14:32:00.638Z,40.40
2022-10-12T14:34:27.353Z,39.93
2022-10-12T14:37:09.418Z,40.83
2022-10-12T14:39:36.813Z,40.47
2022-10-12T14:42:17.907Z,40.93
2022-10-12T14:44:44.787Z,42.05
2022-10-12T14:47:28.332Z,41.36
2022-10-12T14:49:57.793Z,41.21
2022-10-12T14:52:31.493Z,41.37
2022-10-12T14:54:59.757Z,42.01
2022-10-12T14:57:29.303Z,42.22
2022-10-12T14:59:56.930Z,42.61
2022-10-12T15:02:31.664Z,41.95
2022-10-12T15:04:59.803Z,42.37
2022-10-12T15:07:31.833Z,42.41
2022-10-12T15:09:59.346Z,42.25
2022-10-12T15:12:30.080Z,42.46
2022-10-12T15:14:59.705Z,42.61
2022-10-12T15:17:26.762Z,42.15
2022-10-12T15:19:54.377Z,42.40
2022-10-12T15:22:23.797Z,42.54
2022-10-12T15:24:52.809Z,42.73
2022-10-12T15:27:21.293Z,42.68
2022-10-12T15:29:48.664Z,43.31
2022-10-12T15:32:17.575Z,43.92
2022-10-12T15:34:45.177Z,43.87
2022-10-12T15:37:12.205Z,44.00
2022-10-12T15:39:39.170Z,43.41
2022-10-12T15:42:06.250Z,43.75
2022-10-12T15:44:39.787Z,43.80
2022-10-12T15:47:06.768Z,44.03
2022-10-12T15:49:33.495Z,44.09
2022-10-12T15:52:00.409Z,44.10
2022-10-12T15:54:27.546Z,44.14
2022-10-12T15:56:54.231Z,43.96
2022-10-12T15:59:20.916Z,45.19
2022-10-12T16:01:47.923Z,45.01
2022-10-12T16:04:15.654Z,44.86
2022-10-12T16:06:42.674Z,44.66
2022-10-12T16:09:10.162Z,44.75
2022-10-12T16:11:37.172Z,45.07
2022-10-12T16:14:03.980Z,44.71
2022-10-12T16:16:32.176Z,44.83
2022-10-12T16:18:58.973Z,44.30
2022-10-12T16:21:25.892Z,44.61
2022-10-12T16:23:52.867Z,44.80
2022-10-12T16:26:19.653Z,45.15
2022-10-12T16:28:46.539Z,45.38
2022-10-12T16:31:17.658Z,46.05
2022-10-12T16:33:45.096Z,47.29
2022-10-12T16:36:15.169Z,46.94
2022-10-12T16:38:43.038Z,45.78
2022-10-12T16:41:15.234Z,46.27
2022-10-12T16:43:42.771Z,46.34
2022-10-12T16:46:09.618Z,44.98
2022-10-12T16:48:37.588Z,44.97
2022-10-12T16:51:09.450Z,45.21
2022-10-12T16:53:36.638Z,45.80
2022-10-12T16:56:04.475Z,45.64
2022-10-12T16:58:31.361Z,45.38
2022-10-12T17:00:58.295Z,45.78
2022-10-12T17:03:25.117Z,45.48
2022-10-12T17:06:01.340Z,44.99
2022-10-12T17:08:31.395Z,45.40
2022-10-12T17:10:58.154Z,46.11
2022-10-12T17:13:26.139Z,45.77
2022-10-12T17:15:52.799Z,46.00
2022-10-12T17:18:19.720Z,45.99
2022-10-12T17:20:49.390Z,45.96
2022-10-12T17:23:19.058Z,45.56
2022-10-12T17:25:46.887Z,45.75
2022-10-12T17:28:13.803Z,46.10
2022-10-12T17:30:40.588Z,46.09
2022-10-12T17:33:07.472Z,46.20
2022-10-12T17:35:34.189Z,45.83
2022-10-12T17:38:00.967Z,45.40
2022-10-12T17:40:27.673Z,44.87
2022-10-12T17:42:54.682Z,45.31
2022-10-12T17:45:21.567Z,45.39
2022-10-12T17:47:49.627Z,45.83
2022-10-12T17:50:16.652Z,45.59
2022-10-12T17:52:43.325Z,45.55
2022-10-12T17:55:29.574Z,46.30
2022-10-12T17:57:56.935Z,45.77
2022-10-12T18:00:23.812Z,46.04
2022-10-12T18:02:50.654Z,45.80
2022-10-12T18:05:17.534Z,45.71
2022-10-12T18:07:44.633Z,45.50
2022-10-12T18:10:11.655Z,45.90
2022-10-12T18:12:38.637Z,46.15
2022-10-12T18:15:07.555Z,45.51
2022-10-12T18:17:35.223Z,45.38
2022-10-12T18:20:02.221Z,44.93
2022-10-12T18:22:32.432Z,45.93
2022-10-12T18:24:59.795Z,45.14
2022-10-12T18:27:38.468Z,45.52
2022-10-12T18:30:05.980Z,45.16
2022-10-12T18:32:32.793Z,45.80
2022-10-12T18:34:59.605Z,45.31
2022-10-12T18:37:26.360Z,44.89
2022-10-12T18:39:54.429Z,45.09
2022-10-12T18:42:21.380Z,45.01
2022-10-12T18:44:48.184Z,44.80
2022-10-12T18:47:15.058Z,44.66
2022-10-12T18:49:41.759Z,44.34
2022-10-12T18:52:08.789Z,43.83
2022-10-12T18:54:35.807Z,44.03
2022-10-12T18:57:02.675Z,43.66
2022-10-12T18:59:29.670Z,43.95
2022-10-12T19:01:56.567Z,43.39
2022-10-12T19:04:23.784Z,43.16
2022-10-12T19:06:55.585Z,42.59
2022-10-12T19:09:24.639Z,42.56
2022-10-12T19:11:51.429Z,42.95
2022-10-12T19:14:18.258Z,42.75
2022-10-12T19:16:46.029Z,42.66
2022-10-12T19:19:20.440Z,42.65
2022-10-12T19:21:49.570Z,42.60
2022-10-12T19:24:16.328Z,42.68
2022-10-12T19:26:45.294Z,43.07
2022-10-12T19:29:12.118Z,42.79
2022-10-12T19:31:42.833Z,41.90
2022-10-12T19:34:13.400Z,44.03
2022-10-12T19:36:40.697Z,42.87
2022-10-12T19:39:09.878Z,43.62
2022-10-12T19:41:37.039Z,44.03
2022-10-12T19:44:04.990Z,43.92
2022-10-12T19:46:32.487Z,44.27
2022-10-12T19:49:00.049Z,44.18
2022-10-12T19:51:28.823Z,44.73
2022-10-12T19:53:57.665Z,43.69
2022-10-12T19:56:26.135Z,43.14
2022-10-12T19:58:55.547Z,42.43
2022-10-12T20:01:34.854Z,42.48
2022-10-12T20:04:04.320Z,40.61
2022-10-12T20:06:31.368Z,40.29
2022-10-12T20:09:04.084Z,39.83
2022-10-12T20:11:31.270Z,40.46
2022-10-12T20:13:58.445Z,41.18
2022-10-12T20:16:26.909Z,40.49
2022-10-12T20:18:55.776Z,40.35
2022-10-12T20:21:23.698Z,39.94
2022-10-12T20:23:51.495Z,41.50
2022-10-12T20:26:22.788Z,41.78
2022-10-12T20:28:50.667Z,41.88
2022-10-12T20:31:19.369Z,41.72
2022-10-12T20:33:50.743Z,41.80
2022-10-12T20:36:22.218Z,41.39
2022-10-12T20:38:49.592Z,41.35
2022-10-12T20:41:21.243Z,41.50
2022-10-12T20:43:48.242Z,41.48
2022-10-12T20:46:16.710Z,41.33
2022-10-12T20:48:44.963Z,42.80
2022-10-12T20:51:20.912Z,42.65
2022-10-12T20:53:48.135Z,43.02
2022-10-12T20:56:14.833Z,42.58
2022-10-12T20:58:41.663Z,42.94
2022-10-12T21:01:15.411Z,43.51
2022-10-12T21:03:43.219Z,43.40
2022-10-12T21:06:12.710Z,43.81
2022-10-12T21:08:41.105Z,43.94
2022-10-12T21:11:09.771Z,44.04
2022-10-12T21:13:41.578Z,43.24
2022-10-12T21:16:09.619Z,43.31
2022-10-12T21:18:38.426Z,43.41
2022-10-12T21:21:11.692Z,44.09
2022-10-12T21:23:40.714Z,44.80
2022-10-12T21:26:13.051Z,44.65
2022-10-12T21:28:41.329Z,45.14
2022-10-12T21:31:08.741Z,45.10
2022-10-12T21:33:36.677Z,45.36
2022-10-12T21:36:27.091Z,45.08
2022-10-12T21:38:54.331Z,45.18
2022-10-12T21:41:23.597Z,45.79
2022-10-12T21:43:51.225Z,45.53
2022-10-12T21:46:21.415Z,44.55
2022-10-12T21:48:49.976Z,44.62
2022-10-12T21:51:18.572Z,44.47
2022-10-12T21:53:45.577Z,44.20
2022-10-12T21:56:34.017Z,43.95
2022-10-12T21:59:02.311Z,44.26
2022-10-12T22:01:38.085Z,44.13
2022-10-12T22:04:07.422Z,43.74
2022-10-12T22:06:35.133Z,44.09
2022-10-12T22:09:22.286Z,44.12
2022-10-12T22:11:50.234Z,44.66
2022-10-12T22:14:18.818Z,44.23
2022-10-12T22:16:46.092Z,43.61
2022-10-12T22:19:15.266Z,43.36
2022-10-12T22:21:42.218Z,42.96
2022-10-12T22:24:09.106Z,42.67
2022-10-12T22:26:36.342Z,42.18
2022-10-12T22:29:05.212Z,41.94
2022-10-12T22:31:33.422Z,41.94
2022-10-12T22:34:00.571Z,41.67
2022-10-12T22:36:31.018Z,41.63
2022-10-12T22:38:58.855Z,43.00
2022-10-12T22:41:25.624Z,43.39
2022-10-12T22:43:55.207Z,43.68
2022-10-12T22:46:24.195Z,43.60
2022-10-12T22:48:52.712Z,43.18
2022-10-12T22:51:30.484Z,44.15
2022-10-12T22:53:57.595Z,43.80
2022-10-12T22:56:24.408Z,43.82
2022-10-12T22:58:56.225Z,43.51
2022-10-12T23:01:23.585Z,43.52
2022-10-12T23:03:50.779Z,43.01
2022-10-12T23:06:18.833Z,43.03
2022-10-12T23:08:46.520Z,43.15
2022-10-12T23:11:16.215Z,43.56
2022-10-12T23:13:43.152Z,43.29
2022-10-12T23:16:19.472Z,43.20
2022-10-12T23:18:46.312Z,42.96
2022-10-12T23:21:16.346Z,43.43
2022-10-12T23:23:44.345Z,42.61
2022-10-12T23:26:14.130Z,42.71
2022-10-12T23:28:41.258Z,44.27
2022-10-12T23:31:18.625Z,44.29
2022-10-12T23:33:46.076Z,44.88
2022-10-12T23:36:15.753Z,44.31
2022-10-12T23:38:43.935Z,44.24
2022-10-12T23:41:12.165Z,44.93
2022-10-12T23:43:39.392Z,44.72
2022-10-12T23:46:06.496Z,44.17
2022-10-12T23:48:33.708Z,43.44
2022-10-12T23:51:00.904Z,42.50
2022-10-12T23:53:27.760Z,43.04
2022-10-12T23:55:54.784Z,43.46
2022-10-12T23:58:22.143Z,44.33
